Time,TemperatureF,DewpointF,PressureIn,WindDirection,WindDirectionDegrees,WindSpeedMPH,WindSpeedGustMPH,Humidity,HourlyPrecipIn,Conditions,Clouds,dailyrainin,SoftwareType,DateUTC
2013-05-22 00:03:00,49.0,48.0,30.05,ESE,103,0.0,0.0,97,0.01,,,0.07,,2013-05-22 04:03:00,
2013-05-22 00:13:00,49.0,48.0,30.05,ESE,103,0.0,0.0,97,0.01,,,0.07,,2013-05-22 04:13:00,
2013-05-22 00:23:00,49.0,48.0,30.03,East,96,0.0,0.0,97,0.02,,,0.08,,2013-05-22 04:23:00,
2013-05-22 00:33:00,49.0,48.0,30.03,ESE,104,0.0,0.0,97,0.02,,,0.08,,2013-05-22 04:33:00,
2013-05-22 00:43:00,50.0,49.0,30.08,SSW,212,0.0,0.0,98,0.28,,,0.35,,2013-05-22 04:43:00,
2013-05-22 00:53:00,50.0,49.0,30.08,SSW,212,0.0,0.0,98,0.28,,,0.35,,2013-05-22 04:53:00,
2013-05-22 01:02:00,50.0,49.0,30.03,SSW,212,0.0,0.0,98,0.45,,,0.52,,2013-05-22 05:02:00,
2013-05-22 01:12:00,50.0,49.0,30.03,SSW,212,0.0,0.0,98,0.45,,,0.52,,2013-05-22 05:12:00,
2013-05-22 01:21:00,50.0,49.0,29.97,SSW,212,0.0,0.0,98,0.53,,,0.61,,2013-05-22 05:21:00,
2013-05-22 01:32:00,50.0,49.0,29.96,SSW,212,0.0,0.0,98,0.60,,,0.68,,2013-05-22 05:32:00,
2013-05-22 01:42:00,50.0,49.0,29.96,SSW,212,0.0,0.0,98,0.60,,,0.68,,2013-05-22 05:42:00,
2013-05-22 01:52:00,50.0,49.0,29.95,SSW,211,0.0,0.0,98,0.42,,,0.78,,2013-05-22 05:52:00,
2013-05-22 02:01:00,50.0,49.0,29.92,SSW,212,0.0,0.0,98,0.29,,,0.83,,2013-05-22 06:01:00,
2013-05-22 02:12:00,50.0,49.0,29.92,SSW,212,0.0,0.0,98,0.29,,,0.83,,2013-05-22 06:12:00,
2013-05-22 02:21:00,50.0,49.0,29.94,SW,214,0.0,0.0,98,0.25,,,0.87,,2013-05-22 06:21:00,
2013-05-22 02:32:00,50.0,49.0,29.98,SW,221,0.0,0.0,98,0.20,,,0.88,,2013-05-22 06:32:00,
2013-05-22 02:42:00,50.0,49.0,29.96,SW,214,0.0,0.0,98,0.10,,,0.89,,2013-05-22 06:42:00,
2013-05-22 02:52:00,50.0,49.0,29.96,SW,214,0.0,0.0,98,0.10,,,0.89,,2013-05-22 06:52:00,
2013-05-22 03:01:00,50.0,49.0,29.97,SW,214,0.0,0.0,98,0.06,,,0.89,,2013-05-22 07:01:00,
2013-05-22 03:11:00,50.0,49.0,29.97,SW,214,0.0,0.0,98,0.06,,,0.89,,2013-05-22 07:11:00,
2013-05-22 03:21:00,50.0,49.0,29.96,SSW,210,0.0,0.0,98,0.12,,,1.00,,2013-05-22 07:21:00,
2013-05-22 03:32:00,50.0,49.0,29.97,SSW,211,0.0,0.0,98,0.31,,,1.19,,2013-05-22 07:32:00,
2013-05-22 03:42:00,50.0,49.0,29.97,SSW,211,0.0,0.0,98,0.31,,,1.19,,2013-05-22 07:42:00,
2013-05-22 03:53:00,50.0,49.0,30.00,SSW,211,0.0,0.0,98,0.50,,,1.39,,2013-05-22 07:53:00,
2013-05-22 04:02:00,50.0,49.0,30.00,SSW,210,0.0,0.0,98,0.63,,,1.52,,2013-05-22 08:02:00,
2013-05-22 04:11:00,50.0,49.0,30.00,SSW,210,0.0,0.0,98,0.63,,,1.52,,2013-05-22 08:11:00,
2013-05-22 04:22:00,50.0,49.0,29.97,SSW,210,0.0,0.0,98,0.60,,,1.61,,2013-05-22 08:22:00,
2013-05-22 04:32:00,50.0,49.0,29.97,SSW,210,0.0,0.0,98,0.46,,,1.65,,2013-05-22 08:32:00,
2013-05-22 04:42:00,50.0,49.0,29.97,SSW,210,0.0,0.0,98,0.46,,,1.65,,2013-05-22 08:42:00,
2013-05-22 04:52:00,50.0,49.0,29.95,SSW,210,0.0,0.0,98,0.32,,,1.71,,2013-05-22 08:52:00,
2013-05-22 05:01:00,50.0,50.0,29.95,SSW,210,0.0,0.0,99,0.23,,,1.75,,2013-05-22 09:01:00,
2013-05-22 05:12:00,50.0,50.0,29.95,SSW,210,0.0,0.0,99,0.23,,,1.75,,2013-05-22 09:12:00,
2013-05-22 05:22:00,50.0,49.0,29.92,SSW,210,0.0,0.0,98,0.17,,,1.78,,2013-05-22 09:22:00,
2013-05-22 05:33:00,50.0,50.0,29.91,SSW,210,0.0,0.0,99,0.13,,,1.78,,2013-05-22 09:33:00,
2013-05-22 05:42:00,50.0,50.0,29.91,SSW,210,0.0,0.0,99,0.13,,,1.78,,2013-05-22 09:42:00,
2013-05-22 05:53:00,50.0,50.0,29.91,SSW,210,0.0,0.0,99,0.08,,,1.79,,2013-05-22 09:53:00,
2013-05-22 06:03:00,50.0,50.0,29.91,SSW,210,0.0,0.0,99,0.04,,,1.79,,2013-05-22 10:03:00,
2013-05-22 06:12:00,50.0,50.0,29.91,SSW,210,0.0,0.0,99,0.04,,,1.79,,2013-05-22 10:12:00,
2013-05-22 06:23:00,51.0,51.0,29.94,SSW,211,0.0,0.0,99,0.01,,,1.79,,2013-05-22 10:23:00,
2013-05-22 06:33:00,51.0,51.0,29.96,SSW,211,0.0,0.0,99,0.01,,,1.79,,2013-05-22 10:33:00,
2013-05-22 06:42:00,51.0,51.0,29.96,SSW,211,0.0,0.0,99,0.01,,,1.79,,2013-05-22 10:42:00,
2013-05-22 06:53:00,51.0,51.0,29.95,SSW,211,0.0,0.0,99,0.00,,,1.79,,2013-05-22 10:53:00,
2013-05-22 07:02:00,51.0,51.0,29.94,SSW,211,0.0,0.0,99,0.01,,,1.80,,2013-05-22 11:02:00,
2013-05-22 07:11:00,51.0,51.0,29.94,SSW,211,0.0,0.0,99,0.01,,,1.80,,2013-05-22 11:11:00,
2013-05-22 07:22:00,51.0,51.0,29.94,SSW,211,0.0,0.0,99,0.01,,,1.80,,2013-05-22 11:22:00,
2013-05-22 07:32:00,51.0,51.0,29.92,SSW,210,0.0,0.0,99,0.01,,,1.80,,2013-05-22 11:32:00,
2013-05-22 07:42:00,51.0,51.0,29.92,SSW,210,0.0,0.0,99,0.01,,,1.80,,2013-05-22 11:42:00,
2013-05-22 07:53:00,52.0,52.0,29.94,SSW,211,0.0,0.0,99,0.01,,,1.80,,2013-05-22 11:53:00,
2013-05-22 08:02:00,52.0,52.0,29.95,SSW,210,0.0,0.0,99,0.00,,,1.80,,2013-05-22 12:02:00,
2013-05-22 08:12:00,52.0,52.0,29.95,SSW,210,0.0,0.0,99,0.00,,,1.80,,2013-05-22 12:12:00,
2013-05-22 08:22:00,52.0,52.0,29.94,SSW,211,0.0,0.0,99,0.00,,,1.80,,2013-05-22 12:22:00,
2013-05-22 08:32:00,52.0,52.0,29.96,SSW,211,0.0,0.0,99,0.00,,,1.80,,2013-05-22 12:32:00,
2013-05-22 08:42:00,52.0,52.0,29.96,SSW,211,0.0,0.0,99,0.00,,,1.80,,2013-05-22 12:42:00,
2013-05-22 08:52:00,53.0,53.0,29.94,SSW,210,0.0,0.0,99,0.00,,,1.80,,2013-05-22 12:52:00,
2013-05-22 09:02:00,54.0,53.0,29.94,SSW,212,0.0,0.0,98,0.00,,,1.80,,2013-05-22 13:02:00,
2013-05-22 09:12:00,54.0,53.0,29.94,SSW,212,0.0,0.0,98,0.00,,,1.80,,2013-05-22 13:12:00,
2013-05-22 09:22:00,55.0,54.0,29.95,SSW,212,0.0,0.0,98,0.00,,,1.80,,2013-05-22 13:22:00,
2013-05-22 09:32:00,55.0,54.0,29.95,SSW,212,0.0,0.0,98,0.00,,,1.80,,2013-05-22 13:32:00,
2013-05-22 09:42:00,55.0,54.0,29.95,SSW,212,0.0,0.0,98,0.00,,,1.80,,2013-05-22 13:42:00,
2013-05-22 09:52:00,57.0,56.0,29.94,SSW,212,0.0,0.0,98,0.00,,,1.80,,2013-05-22 13:52:00,
2013-05-22 10:02:00,57.0,55.0,29.94,SW,215,0.0,0.0,94,0.00,,,1.80,,2013-05-22 14:02:00,
2013-05-22 10:11:00,57.0,55.0,29.94,SW,215,0.0,0.0,94,0.00,,,1.80,,2013-05-22 14:11:00,
2013-05-22 10:22:00,57.0,56.0,29.94,SSW,212,0.0,0.0,95,0.00,,,1.80,,2013-05-22 14:22:00,
2013-05-22 10:32:00,58.0,56.0,29.94,SSW,212,0.0,0.0,94,0.00,,,1.80,,2013-05-22 14:32:00,
2013-05-22 10:42:00,58.0,56.0,29.94,SSW,212,0.0,0.0,94,0.00,,,1.80,,2013-05-22 14:42:00,
2013-05-22 10:53:00,59.0,57.0,29.95,SSW,212,0.0,0.0,93,0.00,,,1.80,,2013-05-22 14:53:00,
2013-05-22 11:01:00,59.0,56.0,29.95,SW,215,0.0,0.0,91,0.00,,,1.80,,2013-05-22 15:01:00,
2013-05-22 11:11:00,59.0,56.0,29.95,SW,215,0.0,0.0,91,0.00,,,1.80,,2013-05-22 15:11:00,
2013-05-22 11:22:00,60.0,57.0,29.96,SSW,212,0.0,0.0,91,0.00,,,1.75,,2013-05-22 15:22:00,
2013-05-22 11:32:00,60.0,57.0,29.96,SW,214,0.0,0.0,90,0.00,,,1.75,,2013-05-22 15:32:00,
2013-05-22 11:42:00,60.0,57.0,29.96,SW,214,0.0,0.0,90,0.00,,,1.75,,2013-05-22 15:42:00,
2013-05-22 11:53:00,59.0,56.0,29.96,SW,214,0.0,0.0,91,0.00,,,1.75,,2013-05-22 15:53:00,
2013-05-22 12:03:00,59.0,56.0,29.96,SSW,212,0.0,0.0,91,0.00,,,1.75,,2013-05-22 16:03:00,
2013-05-22 12:12:00,59.0,56.0,29.96,SSW,212,0.0,0.0,91,0.00,,,1.75,,2013-05-22 16:12:00,
2013-05-22 12:23:00,60.0,57.0,29.97,SW,214,0.0,0.0,90,0.00,,,1.75,,2013-05-22 16:23:00,
2013-05-22 12:32:00,60.0,57.0,29.97,SW,215,0.0,0.0,91,0.00,,,1.75,,2013-05-22 16:32:00,
2013-05-22 12:42:00,60.0,57.0,29.97,SW,215,0.0,0.0,91,0.00,,,1.75,,2013-05-22 16:42:00,
2013-05-22 12:52:00,61.0,58.0,29.96,SW,219,0.0,0.0,91,0.00,,,1.75,,2013-05-22 16:52:00,
2013-05-22 13:02:00,61.0,58.0,29.96,SW,214,0.0,0.0,91,0.00,,,1.75,,2013-05-22 17:02:00,
2013-05-22 13:12:00,61.0,58.0,29.96,SW,214,0.0,0.0,91,0.00,,,1.75,,2013-05-22 17:12:00,
2013-05-22 13:23:00,61.0,58.0,29.96,SW,219,0.0,0.0,89,0.00,,,1.75,,2013-05-22 17:23:00,
2013-05-22 13:33:00,62.0,59.0,29.96,SW,214,0.0,0.0,89,0.00,,,1.75,,2013-05-22 17:33:00,
2013-05-22 13:42:00,62.0,59.0,29.96,SW,214,0.0,0.0,89,0.00,,,1.75,,2013-05-22 17:42:00,
2013-05-22 13:54:00,62.0,58.0,29.96,SW,222,0.0,0.0,88,0.00,,,1.75,,2013-05-22 17:54:00,
2013-05-22 14:02:00,62.0,59.0,29.95,SW,219,0.0,0.0,90,0.00,,,1.75,,2013-05-22 18:02:00,
2013-05-22 14:14:00,62.0,59.0,29.95,SW,219,0.0,0.0,90,0.00,,,1.75,,2013-05-22 18:14:00,
2013-05-22 14:22:00,62.0,59.0,29.95,SW,217,0.0,0.0,90,0.00,,,1.75,,2013-05-22 18:22:00,
2013-05-22 14:33:00,62.0,59.0,29.94,SW,218,0.0,0.0,89,0.00,,,1.75,,2013-05-22 18:33:00,
2013-05-22 14:42:00,62.0,59.0,29.94,SW,218,0.0,0.0,89,0.00,,,1.75,,2013-05-22 18:42:00,
2013-05-22 14:52:00,61.0,58.0,29.94,WSW,239,0.0,0.0,89,0.00,,,1.75,,2013-05-22 18:52:00,
2013-05-22 15:02:00,61.0,58.0,29.94,SW,226,0.0,0.0,91,0.00,,,1.75,,2013-05-22 19:02:00,
2013-05-22 15:11:00,61.0,58.0,29.94,SW,226,0.0,0.0,91,0.00,,,1.75,,2013-05-22 19:11:00,
2013-05-22 15:22:00,60.0,57.0,29.94,SW,225,0.0,0.0,90,0.00,,,1.75,,2013-05-22 19:22:00,
2013-05-22 15:32:00,60.0,57.0,29.94,SW,224,0.0,0.0,91,0.00,,,1.75,,2013-05-22 19:32:00,
2013-05-22 15:42:00,61.0,58.0,29.94,WSW,246,0.0,0.0,90,0.00,,,1.75,,2013-05-22 19:42:00,
2013-05-22 15:52:00,61.0,58.0,29.94,WSW,246,0.0,0.0,90,0.00,,,1.75,,2013-05-22 19:52:00,
2013-05-22 16:02:00,61.0,58.0,29.94,WSW,255,0.0,0.0,89,0.00,,,1.75,,2013-05-22 20:02:00,
2013-05-22 16:11:00,61.0,58.0,29.94,WSW,255,0.0,0.0,89,0.00,,,1.75,,2013-05-22 20:11:00,
2013-05-22 16:22:00,61.0,57.0,29.95,SW,233,0.0,0.0,88,0.00,,,1.75,,2013-05-22 20:22:00,
2013-05-22 16:32:00,61.0,57.0,29.94,WSW,258,0.0,0.0,88,0.00,,,1.75,,2013-05-22 20:32:00,
2013-05-22 16:42:00,61.0,57.0,29.94,WSW,258,0.0,0.0,88,0.00,,,1.75,,2013-05-22 20:42:00,
2013-05-22 16:52:00,59.0,56.0,29.93,West,259,0.0,0.0,90,0.00,,,1.75,,2013-05-22 20:52:00,
2013-05-22 17:01:00,59.0,56.0,29.94,WSW,252,0.0,0.0,89,0.00,,,1.75,,2013-05-22 21:01:00,
2013-05-22 17:11:00,59.0,56.0,29.94,WSW,252,0.0,0.0,89,0.00,,,1.75,,2013-05-22 21:11:00,
2013-05-22 17:21:00,58.0,55.0,29.94,West,263,0.0,0.0,89,0.00,,,1.75,,2013-05-22 21:21:00,
2013-05-22 17:32:00,57.0,54.0,29.94,SW,232,0.0,0.0,90,0.00,,,1.75,,2013-05-22 21:32:00,
2013-05-22 17:42:00,57.0,54.0,29.94,SW,232,0.0,0.0,90,0.00,,,1.75,,2013-05-22 21:42:00,
2013-05-22 17:53:00,57.0,54.0,29.93,West,264,0.0,0.0,91,0.00,,,1.75,,2013-05-22 21:53:00,
2013-05-22 18:03:00,57.0,54.0,29.93,WSW,239,0.0,0.0,91,0.00,,,1.75,,2013-05-22 22:03:00,
2013-05-22 18:13:00,57.0,54.0,29.93,WSW,239,0.0,0.0,91,0.00,,,1.75,,2013-05-22 22:13:00,
2013-05-22 18:22:00,56.0,54.0,29.94,ESE,103,0.0,0.0,92,0.00,,,1.75,,2013-05-22 22:22:00,
2013-05-22 18:33:00,56.0,54.0,29.94,West,262,0.0,0.0,92,0.00,,,1.75,,2013-05-22 22:33:00,
2013-05-22 18:42:00,56.0,54.0,29.94,West,262,0.0,0.0,92,0.00,,,1.75,,2013-05-22 22:42:00,
2013-05-22 18:52:00,55.0,53.0,29.95,West,264,0.0,0.0,92,0.00,,,1.75,,2013-05-22 22:52:00,
2013-05-22 19:02:00,55.0,53.0,29.95,West,267,0.0,0.0,93,0.00,,,1.75,,2013-05-22 23:02:00,
2013-05-22 19:12:00,55.0,53.0,29.95,West,267,0.0,0.0,93,0.00,,,1.75,,2013-05-22 23:12:00,
2013-05-22 19:21:00,55.0,53.0,29.96,WSW,250,0.0,0.0,93,0.03,,,1.78,,2013-05-22 23:21:00,
2013-05-22 19:32:00,54.0,52.0,29.96,WSW,249,0.0,0.0,94,0.05,,,1.80,,2013-05-22 23:32:00,
2013-05-22 19:42:00,54.0,52.0,29.96,WSW,249,0.0,0.0,94,0.05,,,1.80,,2013-05-22 23:42:00,
2013-05-22 19:53:00,54.0,53.0,29.96,SW,236,0.0,0.0,95,0.10,,,1.85,,2013-05-22 23:53:00,
2013-05-22 20:01:00,54.0,53.0,29.98,WSW,242,0.0,0.0,95,0.18,,,1.93,,2013-05-23 00:01:00,
2013-05-22 20:11:00,54.0,53.0,29.98,WSW,242,0.0,0.0,95,0.18,,,1.93,,2013-05-23 00:11:00,
2013-05-22 20:22:00,53.0,52.0,29.96,WSW,242,0.0,0.0,96,0.15,,,1.93,,2013-05-23 00:22:00,
2013-05-22 20:32:00,53.0,52.0,29.97,WSW,245,0.0,0.0,96,0.13,,,1.93,,2013-05-23 00:32:00,
2013-05-22 20:42:00,53.0,52.0,29.97,WSW,245,0.0,0.0,96,0.13,,,1.93,,2013-05-23 00:42:00,
2013-05-22 20:52:00,52.0,51.0,29.97,WSW,245,0.0,0.0,96,0.08,,,1.93,,2013-05-23 00:52:00,
2013-05-22 21:01:00,52.0,51.0,29.97,WSW,245,0.0,0.0,97,0.00,,,1.93,,2013-05-23 01:01:00,
2013-05-22 21:11:00,52.0,51.0,29.97,WSW,245,0.0,0.0,97,0.00,,,1.93,,2013-05-23 01:11:00,
2013-05-22 21:22:00,52.0,51.0,29.97,WSW,245,0.0,0.0,97,0.00,,,1.93,,2013-05-23 01:22:00,
2013-05-22 21:32:00,52.0,51.0,29.98,WSW,245,0.0,0.0,97,0.00,,,1.93,,2013-05-23 01:32:00,
2013-05-22 21:42:00,52.0,51.0,29.98,WSW,245,0.0,0.0,97,0.00,,,1.93,,2013-05-23 01:42:00,
2013-05-22 21:52:00,52.0,51.0,29.98,WSW,245,0.0,0.0,97,0.00,,,1.93,,2013-05-23 01:52:00,
2013-05-22 22:02:00,52.0,51.0,29.97,WSW,244,0.0,0.0,97,0.00,,,1.93,,2013-05-23 02:02:00,
2013-05-22 22:11:00,52.0,51.0,29.97,WSW,244,0.0,0.0,97,0.00,,,1.93,,2013-05-23 02:11:00,
2013-05-22 22:21:00,52.0,51.0,29.98,WSW,246,0.0,0.0,97,0.00,,,1.92,,2013-05-23 02:21:00,
2013-05-22 22:32:00,52.0,51.0,29.98,WSW,246,0.0,0.0,98,0.00,,,1.92,,2013-05-23 02:32:00,
2013-05-22 22:42:00,52.0,51.0,29.98,WSW,246,0.0,0.0,98,0.00,,,1.92,,2013-05-23 02:42:00,
2013-05-22 22:52:00,52.0,51.0,29.98,WSW,246,0.0,0.0,98,0.00,,,1.92,,2013-05-23 02:52:00,
2013-05-22 23:02:00,52.0,51.0,29.98,WSW,244,0.0,0.0,98,0.00,,,1.92,,2013-05-23 03:02:00,
2013-05-22 23:11:00,52.0,51.0,29.98,WSW,244,0.0,0.0,98,0.00,,,1.92,,2013-05-23 03:11:00,
2013-05-22 23:22:00,52.0,51.0,29.98,WSW,243,0.0,0.0,98,0.01,,,1.93,,2013-05-23 03:22:00,
2013-05-22 23:33:00,52.0,51.0,29.97,WSW,243,0.0,0.0,98,0.01,,,1.93,,2013-05-23 03:33:00,
2013-05-22 23:43:00,52.0,51.0,29.97,WSW,243,0.0,0.0,98,0.01,,,1.93,,2013-05-23 03:43:00,
2013-05-22 23:53:00,52.0,51.0,29.96,WSW,243,0.0,0.0,98,0.01,,,1.93,,2013-05-23 03:53:00,